createdAt,value
2019-03-22T00:01:15.081Z,39.53
2019-03-22T00:03:45.901Z,57.83
2019-03-22T00:06:16.570Z,36.07
2019-03-22T00:08:47.355Z,31.20
2019-03-22T00:11:18.161Z,54.57
2019-03-22T00:13:48.950Z,60.40
2019-03-22T00:16:19.705Z,39.20
2019-03-22T00:18:51.342Z,48.70
2019-03-22T00:21:22.115Z,32.83
2019-03-22T00:23:52.945Z,29.83
2019-03-22T00:26:23.751Z,34.10
2019-03-22T00:28:54.549Z,37.63
2019-03-22T00:31:25.405Z,27.47
2019-03-22T00:33:56.875Z,21.60
2019-03-22T00:36:27.658Z,31.97
2019-03-22T00:38:58.452Z,20.57
2019-03-22T00:41:30.278Z,20.73
2019-03-22T00:44:01.098Z,20.37
2019-03-22T00:46:32.189Z,21.73
2019-03-22T00:49:02.970Z,25.63
2019-03-22T00:51:34.123Z,22.90
2019-03-22T00:54:05.633Z,22.13
2019-03-22T00:56:36.439Z,21.27
2019-03-22T00:59:07.506Z,19.13
2019-03-22T01:01:38.222Z,25.33
2019-03-22T01:04:10.030Z,27.97
2019-03-22T01:06:40.820Z,24.10
2019-03-22T01:09:11.672Z,22.90
2019-03-22T01:11:42.800Z,23.53
2019-03-22T01:14:13.556Z,22.97
2019-03-22T01:16:44.292Z,21.20
2019-03-22T01:19:15.108Z,20.87
2019-03-22T01:21:46.784Z,24.17
2019-03-22T01:24:17.651Z,18.23
2019-03-22T01:26:48.431Z,20.57
2019-03-22T01:29:19.490Z,23.00
2019-03-22T01:31:50.198Z,22.63
2019-03-22T01:34:21.358Z,27.10
2019-03-22T01:36:53.070Z,26.90
2019-03-22T01:39:24.077Z,28.63
2019-03-22T01:41:54.900Z,29.10
2019-03-22T01:44:25.821Z,32.03
2019-03-22T01:46:56.643Z,37.57
2019-03-22T01:49:27.461Z,31.33
2019-03-22T01:51:58.248Z,34.47
2019-03-22T01:54:29.376Z,32.90
2019-03-22T01:57:00.127Z,26.43
2019-03-22T01:59:31.241Z,24.83
2019-03-22T02:02:02.306Z,29.97
2019-03-22T02:04:33.045Z,22.40
2019-03-22T02:07:03.722Z,20.50
2019-03-22T02:09:34.512Z,22.03
2019-03-22T02:12:05.281Z,21.53
2019-03-22T02:14:36.084Z,20.93
2019-03-22T02:17:06.824Z,26.97
2019-03-22T02:19:37.624Z,26.93
2019-03-22T02:22:08.391Z,41.50
2019-03-22T02:24:39.611Z,29.27
2019-03-22T02:27:10.407Z,43.93
2019-03-22T02:29:41.162Z,36.77
2019-03-22T02:32:12.314Z,29.20
2019-03-22T02:34:43.761Z,22.87
2019-03-22T02:37:14.516Z,27.00
2019-03-22T02:39:45.817Z,23.33
2019-03-22T02:42:17.193Z,65.30
2019-03-22T02:44:48.009Z,36.23
2019-03-22T02:47:19.094Z,16.27
2019-03-22T02:49:49.903Z,30.87
2019-03-22T02:52:21.689Z,34.87
2019-03-22T02:54:52.451Z,15.20
2019-03-22T02:57:23.240Z,19.57
2019-03-22T02:59:53.990Z,31.20
2019-03-22T03:02:24.724Z,46.93
2019-03-22T03:04:55.842Z,25.83
2019-03-22T03:07:26.559Z,21.33
2019-03-22T03:09:57.623Z,16.63
2019-03-22T03:12:28.352Z,63.80
2019-03-22T03:14:59.120Z,48.90
2019-03-22T03:17:29.846Z,33.90
2019-03-22T03:20:00.697Z,15.57
2019-03-22T03:22:31.590Z,43.43
2019-03-22T03:25:02.417Z,39.87
2019-03-22T03:27:33.501Z,55.00
2019-03-22T03:30:04.770Z,23.93
2019-03-22T03:32:36.022Z,18.17
2019-03-22T03:35:07.311Z,24.83
2019-03-22T03:37:40.244Z,33.53
2019-03-22T03:40:11.553Z,22.60
2019-03-22T03:42:42.386Z,25.23
2019-03-22T03:45:32.379Z,43.53
2019-03-22T03:48:04.454Z,28.77
2019-03-22T03:50:35.304Z,44.03
2019-03-22T03:53:06.739Z,36.87
2019-03-22T03:55:38.841Z,40.90
2019-03-22T03:58:09.934Z,18.80
2019-03-22T04:00:40.788Z,84.70
2019-03-22T04:03:11.919Z,30.93
2019-03-22T04:05:43.305Z,37.47
2019-03-22T04:08:14.534Z,22.23
2019-03-22T04:10:45.265Z,24.53
2019-03-22T04:13:16.037Z,38.17
2019-03-22T04:15:47.290Z,37.60
2019-03-22T04:18:19.185Z,79.80
2019-03-22T04:20:50.321Z,46.63
2019-03-22T04:23:21.443Z,48.77
2019-03-22T04:25:52.262Z,68.47
2019-03-22T04:28:23.105Z,76.40
2019-03-22T04:30:53.855Z,127.97
2019-03-22T04:33:24.677Z,136.27
2019-03-22T04:35:55.910Z,74.33
2019-03-22T04:38:26.598Z,99.57
2019-03-22T04:40:57.356Z,92.57
2019-03-22T04:43:28.445Z,77.23
2019-03-22T04:45:59.845Z,128.57
2019-03-22T04:48:33.544Z,155.43
2019-03-22T04:51:05.623Z,159.10
2019-03-22T04:53:44.203Z,171.57
2019-03-22T04:56:17.648Z,122.83
2019-03-22T04:58:50.470Z,213.50
2019-03-22T05:01:23.035Z,179.67
2019-03-22T05:03:54.968Z,212.50
2019-03-22T05:06:26.828Z,133.87
2019-03-22T05:09:00.141Z,162.03
2019-03-22T05:11:31.154Z,127.97
2019-03-22T05:14:04.007Z,180.00
2019-03-22T05:16:37.174Z,205.47
2019-03-22T05:19:10.259Z,263.50
2019-03-22T05:21:42.784Z,101.97
2019-03-22T05:24:15.252Z,131.13
2019-03-22T05:26:47.814Z,97.47
2019-03-22T05:29:29.861Z,90.37
2019-03-22T05:32:17.363Z,139.20
2019-03-22T05:34:48.187Z,139.87
2019-03-22T05:37:19.413Z,153.13
2019-03-22T05:39:50.191Z,133.00
2019-03-22T05:42:20.930Z,99.03
2019-03-22T05:44:52.030Z,112.13
2019-03-22T05:47:22.705Z,161.93
2019-03-22T05:49:53.440Z,127.33
2019-03-22T05:52:24.292Z,96.70
2019-03-22T05:54:55.658Z,102.03
2019-03-22T05:57:26.745Z,108.13
2019-03-22T05:59:57.485Z,111.00
2019-03-22T06:02:28.674Z,109.10
2019-03-22T06:04:59.431Z,97.27
2019-03-22T06:07:30.209Z,126.57
2019-03-22T06:10:00.853Z,202.03
2019-03-22T06:12:31.635Z,140.43
2019-03-22T06:15:03.022Z,186.27
2019-03-22T06:17:34.172Z,223.23
2019-03-22T06:20:05.521Z,119.07
2019-03-22T06:22:36.653Z,148.17
2019-03-22T06:25:07.734Z,105.87
2019-03-22T06:27:38.844Z,162.83
2019-03-22T06:30:09.785Z,125.30
2019-03-22T06:32:40.583Z,143.33
2019-03-22T06:35:11.509Z,157.80
2019-03-22T06:37:42.295Z,166.43
2019-03-22T06:40:13.055Z,174.83
2019-03-22T06:42:43.840Z,140.30
2019-03-22T06:45:15.134Z,119.53
2019-03-22T06:47:46.931Z,127.80
2019-03-22T06:50:17.667Z,147.73
2019-03-22T06:52:48.729Z,124.93
2019-03-22T06:55:21.542Z,129.93
2019-03-22T06:57:52.327Z,150.23
2019-03-22T07:00:24.495Z,114.00
2019-03-22T07:02:55.661Z,115.50
2019-03-22T07:05:26.386Z,135.10
2019-03-22T07:07:57.525Z,170.63
2019-03-22T07:10:28.251Z,96.47
2019-03-22T07:12:59.495Z,102.30
2019-03-22T07:15:30.236Z,174.60
2019-03-22T07:18:01.377Z,84.37
2019-03-22T07:20:32.307Z,101.77
2019-03-22T07:23:03.108Z,118.97
2019-03-22T07:25:34.095Z,89.60
2019-03-22T07:28:04.916Z,106.47
2019-03-22T07:30:35.691Z,94.93
2019-03-22T07:33:06.412Z,101.57
2019-03-22T07:35:37.172Z,116.30
2019-03-22T07:38:07.934Z,106.43
2019-03-22T07:40:38.664Z,98.40
2019-03-22T07:43:09.521Z,107.30
2019-03-22T07:45:40.371Z,97.73
2019-03-22T07:48:11.178Z,98.97
2019-03-22T07:50:42.364Z,98.03
2019-03-22T07:53:13.146Z,96.00
2019-03-22T07:55:44.950Z,87.53
2019-03-22T07:58:15.804Z,89.67
2019-03-22T08:00:48.719Z,87.17
2019-03-22T08:03:19.509Z,82.17
2019-03-22T08:05:51.559Z,78.47
2019-03-22T08:08:23.995Z,78.93
2019-03-22T08:10:55.117Z,78.43
2019-03-22T08:13:26.695Z,69.77
2019-03-22T08:15:57.799Z,79.57
2019-03-22T08:18:28.706Z,75.73
2019-03-22T08:20:59.479Z,71.80
2019-03-22T08:23:31.325Z,73.57
2019-03-22T08:26:02.137Z,84.10
2019-03-22T08:28:33.034Z,74.57
2019-03-22T08:31:05.683Z,75.70
2019-03-22T08:33:36.674Z,79.93
2019-03-22T08:36:07.477Z,76.93
2019-03-22T08:38:38.631Z,78.30
2019-03-22T08:41:09.408Z,74.27
2019-03-22T08:43:40.499Z,78.00
2019-03-22T08:46:11.226Z,78.13
2019-03-22T08:48:41.999Z,72.17
2019-03-22T08:51:12.739Z,69.13
2019-03-22T08:53:54.737Z,65.80
2019-03-22T08:56:16.263Z,69.83
2019-03-22T08:58:47.065Z,66.13
2019-03-22T09:01:18.548Z,75.30
2019-03-22T09:03:49.690Z,72.73
2019-03-22T09:06:20.503Z,81.53
2019-03-22T09:08:52.923Z,76.57
2019-03-22T09:11:23.806Z,66.77
2019-03-22T09:13:54.693Z,70.17
2019-03-22T09:16:25.470Z,70.30
2019-03-22T09:18:56.619Z,73.00
2019-03-22T09:21:28.877Z,67.30
2019-03-22T09:23:59.645Z,70.77
2019-03-22T09:26:30.747Z,69.43
2019-03-22T09:29:01.538Z,67.13
2019-03-22T09:31:32.294Z,66.10
2019-03-22T09:34:03.476Z,60.20
2019-03-22T09:36:34.196Z,55.70
2019-03-22T09:39:08.243Z,52.37
2019-03-22T09:41:39.035Z,53.53
2019-03-22T09:44:09.863Z,55.57
2019-03-22T09:46:40.649Z,56.80
2019-03-22T09:49:11.447Z,57.27
2019-03-22T09:51:42.201Z,57.30
2019-03-22T09:54:13.079Z,53.23
2019-03-22T09:56:47.367Z,56.43
2019-03-22T09:59:16.667Z,51.27
2019-03-22T10:01:47.466Z,53.73
2019-03-22T10:04:18.305Z,50.60
2019-03-22T10:06:48.968Z,46.83
2019-03-22T10:09:20.178Z,50.50
2019-03-22T10:11:50.964Z,40.10
2019-03-22T10:14:21.810Z,46.83
2019-03-22T10:16:52.744Z,40.77
2019-03-22T10:19:23.552Z,37.67
2019-03-22T10:21:54.361Z,41.20
2019-03-22T10:24:25.216Z,38.63
2019-03-22T10:26:56.384Z,33.33
2019-03-22T10:29:27.186Z,41.83
2019-03-22T10:31:58.241Z,39.27
2019-03-22T10:34:29.074Z,37.33
2019-03-22T10:36:59.848Z,33.80
2019-03-22T10:39:30.681Z,35.47
2019-03-22T10:43:20.173Z,29.57
2019-03-22T10:45:50.938Z,33.67
2019-03-22T10:48:21.666Z,29.80
2019-03-22T10:50:52.436Z,33.70
2019-03-22T10:53:23.227Z,34.40
2019-03-22T10:55:54.005Z,28.77
2019-03-22T10:58:24.761Z,31.60
2019-03-22T11:00:55.594Z,28.67
2019-03-22T11:03:27.414Z,34.17
2019-03-22T11:05:58.360Z,29.93
2019-03-22T11:08:29.100Z,30.07
2019-03-22T11:10:59.974Z,31.50
2019-03-22T11:13:30.787Z,31.53
2019-03-22T11:16:01.863Z,28.60
2019-03-22T11:18:37.279Z,32.77
2019-03-22T11:21:05.679Z,30.40
2019-03-22T11:23:37.745Z,30.50
2019-03-22T11:26:08.537Z,30.50
2019-03-22T11:28:39.386Z,28.20
2019-03-22T11:31:10.205Z,24.57
2019-03-22T11:33:41.173Z,26.00
2019-03-22T11:36:12.951Z,24.65
2019-03-22T11:38:43.765Z,26.40
2019-03-22T11:41:14.559Z,25.72
2019-03-22T11:43:46.385Z,25.95
2019-03-22T11:46:18.219Z,27.33
2019-03-22T11:48:48.978Z,25.25
2019-03-22T11:51:19.744Z,23.37
2019-03-22T11:53:50.464Z,23.45
2019-03-22T11:56:20.388Z,25.40
2019-03-22T11:58:50.221Z,24.57
2019-03-22T12:01:22.453Z,26.13
2019-03-22T12:03:53.127Z,24.97
2019-03-22T12:06:23.818Z,26.63
2019-03-22T12:08:55.649Z,22.90
2019-03-22T12:11:25.591Z,24.77
2019-03-22T12:13:56.600Z,24.37
2019-03-22T12:16:27.372Z,23.90
2019-03-22T12:18:58.124Z,24.35
2019-03-22T12:21:28.991Z,29.90
2019-03-22T12:23:59.735Z,24.75
2019-03-22T12:26:30.532Z,23.70
2019-03-22T12:29:01.574Z,24.57
2019-03-22T12:31:32.712Z,24.70
2019-03-22T12:34:04.321Z,23.77
2019-03-22T12:36:35.173Z,24.30
2019-03-22T12:39:08.804Z,25.00
2019-03-22T12:41:39.737Z,27.10
2019-03-22T12:44:10.596Z,22.90
2019-03-22T12:46:41.772Z,24.90
2019-03-22T12:49:12.565Z,23.30
2019-03-22T12:51:43.358Z,24.90
2019-03-22T12:54:14.113Z,24.50
2019-03-22T12:56:44.956Z,23.55
2019-03-22T12:59:15.734Z,24.20
2019-03-22T13:01:46.821Z,23.95
2019-03-22T13:04:17.581Z,24.82
2019-03-22T13:06:48.357Z,23.13
2019-03-22T13:09:19.074Z,23.73
2019-03-22T13:11:49.817Z,23.47
2019-03-22T13:14:20.587Z,24.47
2019-03-22T13:16:51.358Z,23.37
2019-03-22T13:19:22.110Z,23.10
2019-03-22T13:21:52.931Z,19.43
2019-03-22T13:24:23.660Z,21.02
2019-03-22T13:26:54.437Z,21.70
2019-03-22T13:29:25.203Z,20.12
2019-03-22T13:31:56.011Z,20.53
2019-03-22T13:34:26.745Z,21.07
2019-03-22T13:36:57.513Z,23.97
2019-03-22T13:39:28.545Z,23.87
2019-03-22T13:41:59.288Z,24.40
2019-03-22T13:44:30.105Z,21.45
2019-03-22T13:47:00.923Z,25.43
2019-03-22T13:49:34.741Z,22.75
2019-03-22T13:52:05.222Z,24.90
2019-03-22T13:54:35.951Z,26.80
2019-03-22T13:57:07.125Z,27.62
2019-03-22T13:59:37.933Z,27.77
2019-03-22T14:02:08.703Z,26.43
2019-03-22T14:04:39.446Z,28.10
2019-03-22T14:07:10.321Z,24.67
2019-03-22T14:09:41.047Z,27.47
2019-03-22T14:12:11.857Z,28.17
2019-03-22T14:14:42.993Z,29.87
2019-03-22T14:17:13.832Z,28.10
2019-03-22T14:19:44.641Z,28.13
2019-03-22T14:22:15.400Z,26.80
2019-03-22T14:24:46.496Z,25.17
2019-03-22T14:27:17.268Z,28.87
2019-03-22T14:29:48.008Z,30.30
2019-03-22T14:32:19.841Z,28.87
2019-03-22T14:34:50.594Z,28.12
2019-03-22T14:37:21.345Z,28.45
2019-03-22T14:39:52.468Z,27.97
2019-03-22T14:42:23.536Z,27.83
2019-03-22T14:44:54.204Z,27.70
2019-03-22T14:47:25.012Z,29.93
2019-03-22T14:49:55.760Z,29.23
2019-03-22T14:52:26.558Z,28.15
2019-03-22T14:54:57.360Z,27.90
2019-03-22T14:57:28.150Z,29.20
2019-03-22T14:59:59.416Z,28.70
2019-03-22T15:02:30.298Z,30.97
2019-03-22T15:05:01.443Z,28.43
2019-03-22T15:07:32.435Z,28.33
2019-03-22T15:10:04.335Z,28.53
2019-03-22T15:12:35.187Z,29.00
2019-03-22T15:15:17.335Z,27.42
2019-03-22T15:18:22.204Z,29.52
2019-03-22T15:21:12.256Z,27.07
2019-03-22T15:24:03.614Z,27.73
2019-03-22T15:27:05.293Z,28.07
2019-03-22T15:29:58.534Z,28.00
2019-03-22T15:32:54.249Z,28.85
2019-03-22T15:35:49.393Z,29.00
2019-03-22T15:38:46.085Z,27.95
2019-03-22T15:41:16.946Z,29.70
2019-03-22T15:43:47.988Z,32.75
2019-03-22T15:46:18.760Z,29.37
2019-03-22T15:48:50.237Z,32.35
2019-03-22T15:51:21.487Z,28.40
2019-03-22T15:53:52.693Z,28.15
2019-03-22T15:56:23.379Z,26.97
2019-03-22T15:58:54.121Z,30.97
2019-03-22T16:01:24.915Z,31.13
2019-03-22T16:03:55.796Z,30.60
2019-03-22T16:06:26.581Z,30.40
2019-03-22T16:08:57.407Z,31.73
2019-03-22T16:11:28.879Z,37.37
2019-03-22T16:13:59.722Z,36.73
2019-03-22T16:16:33.684Z,30.87
2019-03-22T16:19:04.488Z,33.00
2019-03-22T16:21:35.295Z,37.00
2019-03-22T16:24:06.573Z,32.40
2019-03-22T16:26:37.789Z,30.87
2019-03-22T16:29:08.657Z,32.13
2019-03-22T16:31:39.499Z,32.03
2019-03-22T16:34:10.310Z,29.10
2019-03-22T16:36:41.082Z,30.07
2019-03-22T16:39:11.923Z,45.40
2019-03-22T16:41:43.143Z,31.37
2019-03-22T16:44:14.018Z,34.73
2019-03-22T16:46:44.839Z,41.10
2019-03-22T16:49:16.041Z,36.30
2019-03-22T16:51:46.796Z,32.73
2019-03-22T16:54:17.609Z,100.27
2019-03-22T16:56:48.636Z,66.90
2019-03-22T16:59:19.448Z,114.50
2019-03-22T17:01:50.238Z,61.73
2019-03-22T17:04:21.027Z,99.43
2019-03-22T17:06:51.807Z,69.23
2019-03-22T17:09:22.703Z,99.07
2019-03-22T17:11:53.504Z,107.97
2019-03-22T17:14:24.640Z,99.50
2019-03-22T17:16:55.876Z,75.00
2019-03-22T17:19:27.208Z,85.00
2019-03-22T17:21:57.978Z,78.37
2019-03-22T17:24:28.862Z,72.87
2019-03-22T17:27:00.260Z,80.47
2019-03-22T17:29:31.097Z,88.27
2019-03-22T17:32:01.839Z,84.67
2019-03-22T17:34:32.601Z,91.33
2019-03-22T17:37:03.509Z,84.57
2019-03-22T17:39:34.293Z,99.33
2019-03-22T17:42:05.179Z,101.57
2019-03-22T17:44:35.967Z,109.70
2019-03-22T17:47:06.745Z,104.57
2019-03-22T17:49:47.537Z,116.37
2019-03-22T17:52:10.062Z,115.33
2019-03-22T17:54:40.804Z,114.60
2019-03-22T17:57:18.408Z,115.67
2019-03-22T17:59:44.098Z,108.70
2019-03-22T18:02:14.849Z,118.77
2019-03-22T18:04:45.602Z,118.57
2019-03-22T18:07:16.369Z,119.57
2019-03-22T18:09:47.535Z,120.40
2019-03-22T18:12:18.320Z,120.60
2019-03-22T18:14:49.174Z,115.00
2019-03-22T18:17:19.940Z,112.50
2019-03-22T18:19:51.130Z,115.50
2019-03-22T18:22:22.262Z,116.60
2019-03-22T18:24:53.090Z,123.83
2019-03-22T18:27:23.915Z,116.67
2019-03-22T18:29:54.811Z,129.03
2019-03-22T18:32:25.532Z,130.90
2019-03-22T18:34:56.248Z,130.37
2019-03-22T18:37:27.052Z,121.63
2019-03-22T18:39:57.816Z,127.97
2019-03-22T18:42:29.460Z,123.97
2019-03-22T18:45:00.598Z,122.63
2019-03-22T18:47:31.352Z,133.80
2019-03-22T18:50:02.043Z,143.00
2019-03-22T18:52:32.905Z,119.93
2019-03-22T18:55:03.743Z,123.67
2019-03-22T18:57:34.877Z,135.40
2019-03-22T19:00:08.022Z,135.03
2019-03-22T19:02:38.925Z,131.53
2019-03-22T19:05:10.049Z,147.50
2019-03-22T19:07:40.769Z,121.40
2019-03-22T19:10:13.052Z,128.07
2019-03-22T19:12:43.789Z,125.63
2019-03-22T19:15:14.695Z,134.57
2019-03-22T19:17:45.860Z,133.40
2019-03-22T19:20:16.850Z,140.90
2019-03-22T19:22:47.678Z,123.97
2019-03-22T19:25:18.582Z,123.50
2019-03-22T19:27:49.362Z,124.13
2019-03-22T19:30:20.253Z,135.60
2019-03-22T19:32:50.982Z,139.77
2019-03-22T19:35:21.765Z,146.77
2019-03-22T19:37:53.002Z,127.87
2019-03-22T19:40:24.366Z,155.30
2019-03-22T19:42:55.135Z,135.30
2019-03-22T19:45:27.046Z,130.73
2019-03-22T19:47:57.767Z,142.80
2019-03-22T19:50:28.911Z,140.50
2019-03-22T19:52:59.979Z,148.70
2019-03-22T19:55:30.786Z,162.17
2019-03-22T19:58:01.642Z,177.90
2019-03-22T20:00:32.438Z,171.10
2019-03-22T20:03:03.323Z,173.10
2019-03-22T20:05:35.077Z,163.90
2019-03-22T20:08:06.444Z,150.13
2019-03-22T20:10:37.407Z,168.07
2019-03-22T20:13:08.212Z,169.33
2019-03-22T20:15:38.986Z,180.27
2019-03-22T20:18:09.743Z,164.10
2019-03-22T20:20:40.439Z,178.00
2019-03-22T20:23:11.216Z,176.63
2019-03-22T20:25:42.392Z,192.10
2019-03-22T20:28:13.214Z,197.83
2019-03-22T20:30:43.963Z,199.13
2019-03-22T20:33:15.105Z,229.53
2019-03-22T20:35:46.154Z,197.53
2019-03-22T20:38:17.022Z,212.30
2019-03-22T20:40:47.797Z,208.30
2019-03-22T20:43:21.039Z,209.90
2019-03-22T20:45:51.055Z,221.27
2019-03-22T20:48:21.973Z,203.23
2019-03-22T20:50:53.112Z,195.97
2019-03-22T20:53:25.489Z,197.50
2019-03-22T20:55:56.308Z,180.37
2019-03-22T20:58:27.037Z,184.30
2019-03-22T21:00:57.902Z,195.63
2019-03-22T21:03:28.738Z,199.17
2019-03-22T21:05:59.580Z,189.83
2019-03-22T21:08:30.632Z,184.73
2019-03-22T21:11:01.525Z,174.40
2019-03-22T21:13:32.697Z,161.97
2019-03-22T21:16:03.353Z,154.40
2019-03-22T21:18:34.880Z,183.93
2019-03-22T21:21:05.631Z,162.03
2019-03-22T21:23:36.852Z,157.03
2019-03-22T21:26:08.225Z,152.87
2019-03-22T21:28:38.966Z,154.77
2019-03-22T21:31:09.753Z,146.87
2019-03-22T21:33:40.810Z,140.70
2019-03-22T21:36:11.605Z,143.73
2019-03-22T21:38:42.613Z,140.67
2019-03-22T21:41:13.449Z,134.27
2019-03-22T21:43:44.157Z,140.20
2019-03-22T21:46:15.934Z,138.67
2019-03-22T21:48:46.652Z,136.67
2019-03-22T21:51:17.413Z,141.60
2019-03-22T21:53:48.162Z,127.27
2019-03-22T21:56:18.977Z,144.57
2019-03-22T21:58:49.760Z,120.33
2019-03-22T22:01:20.528Z,116.13
2019-03-22T22:03:51.778Z,120.77
2019-03-22T22:06:22.992Z,124.27
2019-03-22T22:08:54.081Z,120.30
2019-03-22T22:11:25.231Z,135.23
2019-03-22T22:13:55.965Z,120.00
2019-03-22T22:16:27.117Z,111.47
2019-03-22T22:18:57.891Z,117.83
2019-03-22T22:21:28.645Z,115.63
2019-03-22T22:23:59.307Z,114.50
2019-03-22T22:26:30.141Z,113.20
2019-03-22T22:29:01.197Z,108.03
2019-03-22T22:31:31.937Z,107.73
2019-03-22T22:34:02.821Z,109.80
2019-03-22T22:36:33.701Z,110.93
2019-03-22T22:39:05.699Z,109.67
2019-03-22T22:41:38.187Z,105.43
2019-03-22T22:44:08.921Z,118.07
2019-03-22T22:46:39.707Z,111.70
2019-03-22T22:49:10.467Z,109.27
2019-03-22T22:51:41.279Z,114.70
2019-03-22T22:54:12.817Z,115.07
2019-03-22T22:56:43.623Z,109.43
2019-03-22T22:59:14.383Z,102.67
2019-03-22T23:01:45.213Z,109.90
2019-03-22T23:04:16.295Z,107.73
2019-03-22T23:06:47.019Z,106.80
2019-03-22T23:09:17.749Z,101.23
2019-03-22T23:11:48.804Z,99.77
2019-03-22T23:14:19.843Z,95.40
2019-03-22T23:16:50.769Z,98.80
2019-03-22T23:19:21.865Z,92.53
2019-03-22T23:21:52.591Z,92.80
2019-03-22T23:24:23.319Z,94.90
2019-03-22T23:26:54.181Z,87.93
2019-03-22T23:29:24.971Z,92.50
2019-03-22T23:31:56.523Z,88.17
2019-03-22T23:34:27.286Z,91.83
2019-03-22T23:36:58.064Z,91.47
2019-03-22T23:39:28.840Z,89.20
2019-03-22T23:41:59.830Z,82.73
2019-03-22T23:44:30.616Z,85.93
2019-03-22T23:47:01.471Z,91.80
2019-03-22T23:49:32.228Z,84.23
2019-03-22T23:52:02.983Z,88.40
2019-03-22T23:54:34.880Z,85.80
2019-03-22T23:57:05.662Z,89.50
2019-03-22T23:59:36.764Z,86.30
